sensor_id;sensor_type;location;lat;lon;timestamp;temperature;humidity
70368;DHT22;57789;53.868;10.728;2023-03-01T00:01:09;0.50;99.90
70368;DHT22;57789;53.868;10.728;2023-03-01T00:03:35;0.50;99.90
70368;DHT22;57789;53.868;10.728;2023-03-01T00:06:01;0.40;99.90
70368;DHT22;57789;53.868;10.728;2023-03-01T00:08:27;0.40;99.90
70368;DHT22;57789;53.868;10.728;2023-03-01T00:13:28;0.50;99.90
70368;DHT22;57789;53.868;10.728;2023-03-01T00:15:53;0.40;99.90
70368;DHT22;57789;53.868;10.728;2023-03-01T00:18:19;0.40;99.90
70368;DHT22;57789;53.868;10.728;2023-03-01T00:20:55;0.40;99.90
70368;DHT22;57789;53.868;10.728;2023-03-01T00:23:21;0.50;99.90
70368;DHT22;57789;53.868;10.728;2023-03-01T00:25:48;0.30;99.90
70368;DHT22;57789;53.868;10.728;2023-03-01T00:28:14;0.20;99.90
70368;DHT22;57789;53.868;10.728;2023-03-01T00:30:40;0.10;99.90
70368;DHT22;57789;53.868;10.728;2023-03-01T00:33:05;0.10;99.90
70368;DHT22;57789;53.868;10.728;2023-03-01T00:35:35;0.00;99.90
70368;DHT22;57789;53.868;10.728;2023-03-01T00:38:01;0.10;99.90
70368;DHT22;57789;53.868;10.728;2023-03-01T00:40:28;0.20;99.90
70368;DHT22;57789;53.868;10.728;2023-03-01T00:42:54;0.30;99.90
70368;DHT22;57789;53.868;10.728;2023-03-01T00:45:20;0.40;99.90
70368;DHT22;57789;53.868;10.728;2023-03-01T00:47:49;0.40;99.90
70368;DHT22;57789;53.868;10.728;2023-03-01T00:50:15;0.40;99.90
70368;DHT22;57789;53.868;10.728;2023-03-01T00:52:41;0.50;99.90
70368;DHT22;57789;53.868;10.728;2023-03-01T00:55:07;0.50;99.90
70368;DHT22;57789;53.868;10.728;2023-03-01T00:57:33;0.50;99.90
70368;DHT22;57789;53.868;10.728;2023-03-01T00:59:59;0.10;99.90
70368;DHT22;57789;53.868;10.728;2023-03-01T01:02:25;0.10;99.90
70368;DHT22;57789;53.868;10.728;2023-03-01T01:04:51;0.10;99.90
70368;DHT22;57789;53.868;10.728;2023-03-01T01:07:17;-0.10;99.90
70368;DHT22;57789;53.868;10.728;2023-03-01T01:09:43;-0.10;99.90
70368;DHT22;57789;53.868;10.728;2023-03-01T01:12:08;0.00;99.90
70368;DHT22;57789;53.868;10.728;2023-03-01T01:14:35;-0.30;99.90
70368;DHT22;57789;53.868;10.728;2023-03-01T01:17:01;-0.40;99.90
70368;DHT22;57789;53.868;10.728;2023-03-01T01:19:26;-0.50;99.90
70368;DHT22;57789;53.868;10.728;2023-03-01T01:21:52;-0.60;99.90
70368;DHT22;57789;53.868;10.728;2023-03-01T01:24:19;-0.60;99.90
70368;DHT22;57789;53.868;10.728;2023-03-01T01:26:44;-0.70;99.90
70368;DHT22;57789;53.868;10.728;2023-03-01T01:29:11;-0.70;99.90
70368;DHT22;57789;53.868;10.728;2023-03-01T01:31:38;-0.80;99.90
70368;DHT22;57789;53.868;10.728;2023-03-01T01:34:06;-0.90;99.90
70368;DHT22;57789;53.868;10.728;2023-03-01T01:36:33;-0.90;99.90
70368;DHT22;57789;53.868;10.728;2023-03-01T01:38:59;-0.70;99.90
70368;DHT22;57789;53.868;10.728;2023-03-01T01:41:26;-0.40;99.90
70368;DHT22;57789;53.868;10.728;2023-03-01T01:46:58;-0.10;99.90
70368;DHT22;57789;53.868;10.728;2023-03-01T01:49:31;0.00;99.90
70368;DHT22;57789;53.868;10.728;2023-03-01T01:52:23;0.00;99.90
70368;DHT22;57789;53.868;10.728;2023-03-01T01:57:40;-0.10;99.90
70368;DHT22;57789;53.868;10.728;2023-03-01T02:00:19;0.00;99.90
70368;DHT22;57789;53.868;10.728;2023-03-01T02:02:47;0.10;99.90
70368;DHT22;57789;53.868;10.728;2023-03-01T02:05:35;0.10;99.90
70368;DHT22;57789;53.868;10.728;2023-03-01T02:08:02;0.00;99.90
70368;DHT22;57789;53.868;10.728;2023-03-01T02:10:29;-0.10;99.90
70368;DHT22;57789;53.868;10.728;2023-03-01T02:12:57;-0.20;99.90
70368;DHT22;57789;53.868;10.728;2023-03-01T02:15:24;-0.30;99.90
70368;DHT22;57789;53.868;10.728;2023-03-01T02:17:50;-0.20;99.90
70368;DHT22;57789;53.868;10.728;2023-03-01T02:22:55;-0.20;99.90
70368;DHT22;57789;53.868;10.728;2023-03-01T02:30:42;-0.40;99.90
70368;DHT22;57789;53.868;10.728;2023-03-01T02:33:33;-0.50;99.90
70368;DHT22;57789;53.868;10.728;2023-03-01T02:36:04;-0.30;99.90
70368;DHT22;57789;53.868;10.728;2023-03-01T02:38:31;-0.30;99.90
70368;DHT22;57789;53.868;10.728;2023-03-01T02:40:57;-0.20;99.90
70368;DHT22;57789;53.868;10.728;2023-03-01T02:43:27;0.00;99.90
70368;DHT22;57789;53.868;10.728;2023-03-01T02:45:58;0.10;99.90
70368;DHT22;57789;53.868;10.728;2023-03-01T02:48:23;0.00;99.90
70368;DHT22;57789;53.868;10.728;2023-03-01T02:53:56;0.10;99.90
70368;DHT22;57789;53.868;10.728;2023-03-01T02:56:25;0.20;99.90
70368;DHT22;57789;53.868;10.728;2023-03-01T02:58:52;0.10;99.90
70368;DHT22;57789;53.868;10.728;2023-03-01T03:01:18;0.10;99.90
70368;DHT22;57789;53.868;10.728;2023-03-01T03:03:44;0.10;99.90
70368;DHT22;57789;53.868;10.728;2023-03-01T03:06:10;-0.20;99.90
70368;DHT22;57789;53.868;10.728;2023-03-01T03:08:36;-0.50;99.90
70368;DHT22;57789;53.868;10.728;2023-03-01T03:11:01;-0.60;99.90
70368;DHT22;57789;53.868;10.728;2023-03-01T03:13:27;-0.80;99.90
70368;DHT22;57789;53.868;10.728;2023-03-01T03:15:57;-0.80;99.90
70368;DHT22;57789;53.868;10.728;2023-03-01T03:18:24;-0.60;99.90
70368;DHT22;57789;53.868;10.728;2023-03-01T03:20:53;-0.40;99.90
70368;DHT22;57789;53.868;10.728;2023-03-01T03:23:20;-0.40;99.90
70368;DHT22;57789;53.868;10.728;2023-03-01T03:25:51;-0.60;99.90
70368;DHT22;57789;53.868;10.728;2023-03-01T03:28:17;-0.60;99.90
70368;DHT22;57789;53.868;10.728;2023-03-01T03:30:43;-0.80;99.90
70368;DHT22;57789;53.868;10.728;2023-03-01T03:33:12;-0.70;99.90
70368;DHT22;57789;53.868;10.728;2023-03-01T03:35:47;-0.70;99.90
70368;DHT22;57789;53.868;10.728;2023-03-01T03:38:16;-0.60;99.90
70368;DHT22;57789;53.868;10.728;2023-03-01T03:40:47;-0.60;99.90
70368;DHT22;57789;53.868;10.728;2023-03-01T03:43:15;-0.80;99.90
70368;DHT22;57789;53.868;10.728;2023-03-01T03:45:44;-0.80;99.90
70368;DHT22;57789;53.868;10.728;2023-03-01T03:48:10;-0.90;99.90
70368;DHT22;57789;53.868;10.728;2023-03-01T03:50:37;-1.00;99.90
70368;DHT22;57789;53.868;10.728;2023-03-01T03:53:08;-0.90;99.90
70368;DHT22;57789;53.868;10.728;2023-03-01T03:55:34;-0.60;99.90
70368;DHT22;57789;53.868;10.728;2023-03-01T03:58:02;-0.40;99.90
70368;DHT22;57789;53.868;10.728;2023-03-01T04:00:33;-0.20;99.90
70368;DHT22;57789;53.868;10.728;2023-03-01T04:02:59;-0.10;99.90
70368;DHT22;57789;53.868;10.728;2023-03-01T04:05:26;-0.20;99.90
70368;DHT22;57789;53.868;10.728;2023-03-01T04:07:52;-0.20;99.90
70368;DHT22;57789;53.868;10.728;2023-03-01T04:10:30;-0.10;99.90
70368;DHT22;57789;53.868;10.728;2023-03-01T04:12:56;-0.10;99.90
70368;DHT22;57789;53.868;10.728;2023-03-01T04:15:23;-0.20;99.90
70368;DHT22;57789;53.868;10.728;2023-03-01T04:17:51;-0.10;99.90
70368;DHT22;57789;53.868;10.728;2023-03-01T04:20:20;-0.40;99.90
70368;DHT22;57789;53.868;10.728;2023-03-01T04:23:09;-0.60;99.90
70368;DHT22;57789;53.868;10.728;2023-03-01T04:25:46;-0.80;99.90
70368;DHT22;57789;53.868;10.728;2023-03-01T04:28:14;-0.90;99.90
70368;DHT22;57789;53.868;10.728;2023-03-01T04:30:40;-0.90;99.90
70368;DHT22;57789;53.868;10.728;2023-03-01T04:33:08;-0.90;99.90
70368;DHT22;57789;53.868;10.728;2023-03-01T04:35:36;-0.80;99.90
70368;DHT22;57789;53.868;10.728;2023-03-01T04:38:02;-0.90;99.90
70368;DHT22;57789;53.868;10.728;2023-03-01T04:40:28;-0.90;99.90
70368;DHT22;57789;53.868;10.728;2023-03-01T04:42:54;-0.70;99.90
70368;DHT22;57789;53.868;10.728;2023-03-01T04:45:20;-0.70;99.90
70368;DHT22;57789;53.868;10.728;2023-03-01T04:47:46;-0.70;99.90
70368;DHT22;57789;53.868;10.728;2023-03-01T04:50:15;-0.80;99.90
70368;DHT22;57789;53.868;10.728;2023-03-01T04:52:41;-1.00;99.90
70368;DHT22;57789;53.868;10.728;2023-03-01T04:55:07;-1.10;99.90
70368;DHT22;57789;53.868;10.728;2023-03-01T04:57:34;-1.10;99.90
70368;DHT22;57789;53.868;10.728;2023-03-01T04:59:59;-1.10;99.90
70368;DHT22;57789;53.868;10.728;2023-03-01T05:02:25;-1.00;99.90
70368;DHT22;57789;53.868;10.728;2023-03-01T05:04:51;-1.10;99.90
70368;DHT22;57789;53.868;10.728;2023-03-01T05:07:17;-1.10;99.90
70368;DHT22;57789;53.868;10.728;2023-03-01T05:09:46;-1.20;99.90
70368;DHT22;57789;53.868;10.728;2023-03-01T05:12:12;-1.20;99.90
70368;DHT22;57789;53.868;10.728;2023-03-01T05:14:39;-1.10;99.90
70368;DHT22;57789;53.868;10.728;2023-03-01T05:17:05;-1.00;99.90
70368;DHT22;57789;53.868;10.728;2023-03-01T05:19:31;-1.00;99.90
70368;DHT22;57789;53.868;10.728;2023-03-01T05:21:58;-1.00;99.90
70368;DHT22;57789;53.868;10.728;2023-03-01T05:24:28;-0.90;99.90
70368;DHT22;57789;53.868;10.728;2023-03-01T05:26:54;-0.80;99.90
70368;DHT22;57789;53.868;10.728;2023-03-01T05:29:21;-0.60;99.90
70368;DHT22;57789;53.868;10.728;2023-03-01T05:32:00;-0.50;99.90
70368;DHT22;57789;53.868;10.728;2023-03-01T05:34:29;-0.40;99.90
70368;DHT22;57789;53.868;10.728;2023-03-01T05:36:55;-0.20;99.90
70368;DHT22;57789;53.868;10.728;2023-03-01T05:39:23;-0.30;99.90
70368;DHT22;57789;53.868;10.728;2023-03-01T05:41:52;-0.40;99.90
70368;DHT22;57789;53.868;10.728;2023-03-01T05:44:18;-0.40;99.90
70368;DHT22;57789;53.868;10.728;2023-03-01T05:46:43;-0.40;99.90
70368;DHT22;57789;53.868;10.728;2023-03-01T05:49:10;-0.30;99.90
70368;DHT22;57789;53.868;10.728;2023-03-01T05:51:36;-0.30;99.90
70368;DHT22;57789;53.868;10.728;2023-03-01T05:54:02;-0.40;99.90
70368;DHT22;57789;53.868;10.728;2023-03-01T05:56:27;-0.30;99.90
70368;DHT22;57789;53.868;10.728;2023-03-01T05:58:54;-0.30;99.90
70368;DHT22;57789;53.868;10.728;2023-03-01T06:01:20;-0.20;99.90
70368;DHT22;57789;53.868;10.728;2023-03-01T06:03:45;-0.30;99.90
70368;DHT22;57789;53.868;10.728;2023-03-01T06:06:11;-0.40;99.90
70368;DHT22;57789;53.868;10.728;2023-03-01T06:08:37;-0.40;99.90
70368;DHT22;57789;53.868;10.728;2023-03-01T06:11:03;-0.40;99.90
70368;DHT22;57789;53.868;10.728;2023-03-01T06:13:28;-0.20;99.90
70368;DHT22;57789;53.868;10.728;2023-03-01T06:15:55;0.10;99.90
70368;DHT22;57789;53.868;10.728;2023-03-01T06:18:20;0.20;99.90
70368;DHT22;57789;53.868;10.728;2023-03-01T06:20:53;0.40;99.90
70368;DHT22;57789;53.868;10.728;2023-03-01T06:23:18;0.30;99.90
70368;DHT22;57789;53.868;10.728;2023-03-01T06:25:44;0.30;99.90
70368;DHT22;57789;53.868;10.728;2023-03-01T06:28:10;0.40;99.90
70368;DHT22;57789;53.868;10.728;2023-03-01T06:30:35;0.60;99.90
70368;DHT22;57789;53.868;10.728;2023-03-01T06:33:01;0.60;99.90
70368;DHT22;57789;53.868;10.728;2023-03-01T06:35:29;0.70;99.90
70368;DHT22;57789;53.868;10.728;2023-03-01T06:37:55;0.80;99.90
70368;DHT22;57789;53.868;10.728;2023-03-01T06:40:21;0.70;99.90
70368;DHT22;57789;53.868;10.728;2023-03-01T06:42:48;0.80;99.90
70368;DHT22;57789;53.868;10.728;2023-03-01T06:45:18;0.80;99.90
70368;DHT22;57789;53.868;10.728;2023-03-01T06:47:44;0.70;99.90
70368;DHT22;57789;53.868;10.728;2023-03-01T06:50:10;0.60;99.90
70368;DHT22;57789;53.868;10.728;2023-03-01T06:52:36;0.60;99.90
70368;DHT22;57789;53.868;10.728;2023-03-01T06:55:02;0.70;99.90
70368;DHT22;57789;53.868;10.728;2023-03-01T06:57:28;0.80;99.90
70368;DHT22;57789;53.868;10.728;2023-03-01T06:59:54;0.80;99.90
70368;DHT22;57789;53.868;10.728;2023-03-01T07:02:20;0.90;99.90
70368;DHT22;57789;53.868;10.728;2023-03-01T07:04:45;0.90;99.90
70368;DHT22;57789;53.868;10.728;2023-03-01T07:07:11;0.90;99.90
70368;DHT22;57789;53.868;10.728;2023-03-01T07:09:38;0.70;99.90
70368;DHT22;57789;53.868;10.728;2023-03-01T07:12:04;0.70;99.90
70368;DHT22;57789;53.868;10.728;2023-03-01T07:14:29;0.70;99.90
70368;DHT22;57789;53.868;10.728;2023-03-01T07:16:55;0.70;99.90
70368;DHT22;57789;53.868;10.728;2023-03-01T07:19:21;0.70;99.90
70368;DHT22;57789;53.868;10.728;2023-03-01T07:21:47;0.80;99.90
70368;DHT22;57789;53.868;10.728;2023-03-01T07:24:13;0.80;99.90
70368;DHT22;57789;53.868;10.728;2023-03-01T07:26:38;0.90;99.90
70368;DHT22;57789;53.868;10.728;2023-03-01T07:29:05;1.00;99.90
70368;DHT22;57789;53.868;10.728;2023-03-01T07:31:32;1.00;99.90
70368;DHT22;57789;53.868;10.728;2023-03-01T07:33:58;0.90;99.90
70368;DHT22;57789;53.868;10.728;2023-03-01T07:36:23;0.70;99.90
70368;DHT22;57789;53.868;10.728;2023-03-01T07:38:50;0.80;99.90
70368;DHT22;57789;53.868;10.728;2023-03-01T07:41:15;0.60;99.90
70368;DHT22;57789;53.868;10.728;2023-03-01T07:43:44;0.70;99.90
70368;DHT22;57789;53.868;10.728;2023-03-01T07:46:09;0.90;99.90
70368;DHT22;57789;53.868;10.728;2023-03-01T07:48:35;0.90;99.90
70368;DHT22;57789;53.868;10.728;2023-03-01T07:51:03;0.90;99.90
70368;DHT22;57789;53.868;10.728;2023-03-01T07:53:30;1.10;99.90
70368;DHT22;57789;53.868;10.728;2023-03-01T07:56:10;1.10;99.90
70368;DHT22;57789;53.868;10.728;2023-03-01T07:58:38;1.30;99.90
70368;DHT22;57789;53.868;10.728;2023-03-01T08:01:09;1.40;99.90
70368;DHT22;57789;53.868;10.728;2023-03-01T08:03:36;1.50;99.90
70368;DHT22;57789;53.868;10.728;2023-03-01T08:06:03;1.70;99.90
70368;DHT22;57789;53.868;10.728;2023-03-01T08:08:30;1.80;99.90
70368;DHT22;57789;53.868;10.728;2023-03-01T08:10:59;1.70;99.90
70368;DHT22;57789;53.868;10.728;2023-03-01T08:13:27;1.70;99.90
70368;DHT22;57789;53.868;10.728;2023-03-01T08:15:53;1.90;99.90
70368;DHT22;57789;53.868;10.728;2023-03-01T08:18:19;2.20;99.90
70368;DHT22;57789;53.868;10.728;2023-03-01T08:20:45;2.10;99.90
70368;DHT22;57789;53.868;10.728;2023-03-01T08:23:11;2.20;99.90
70368;DHT22;57789;53.868;10.728;2023-03-01T08:25:37;2.10;99.90
70368;DHT22;57789;53.868;10.728;2023-03-01T08:28:04;2.10;99.90
70368;DHT22;57789;53.868;10.728;2023-03-01T08:30:31;2.10;99.90
70368;DHT22;57789;53.868;10.728;2023-03-01T08:32:57;2.20;99.90
70368;DHT22;57789;53.868;10.728;2023-03-01T08:35:23;2.30;99.90
70368;DHT22;57789;53.868;10.728;2023-03-01T08:37:49;2.30;99.90
70368;DHT22;57789;53.868;10.728;2023-03-01T08:40:14;2.10;99.90
70368;DHT22;57789;53.868;10.728;2023-03-01T08:42:41;2.30;99.90
70368;DHT22;57789;53.868;10.728;2023-03-01T08:45:09;2.50;99.90
70368;DHT22;57789;53.868;10.728;2023-03-01T08:47:36;2.40;99.90
70368;DHT22;57789;53.868;10.728;2023-03-01T08:50:05;2.40;99.90
70368;DHT22;57789;53.868;10.728;2023-03-01T08:52:32;2.50;99.90
70368;DHT22;57789;53.868;10.728;2023-03-01T08:54:58;2.30;99.90
70368;DHT22;57789;53.868;10.728;2023-03-01T08:57:24;2.50;99.90
70368;DHT22;57789;53.868;10.728;2023-03-01T08:59:49;2.70;99.90
70368;DHT22;57789;53.868;10.728;2023-03-01T09:02:17;2.60;99.90
70368;DHT22;57789;53.868;10.728;2023-03-01T09:04:43;2.80;99.90
70368;DHT22;57789;53.868;10.728;2023-03-01T09:07:11;3.00;99.90
70368;DHT22;57789;53.868;10.728;2023-03-01T09:09:37;3.30;99.90
70368;DHT22;57789;53.868;10.728;2023-03-01T09:12:03;3.60;99.90
70368;DHT22;57789;53.868;10.728;2023-03-01T09:14:29;3.80;99.90
70368;DHT22;57789;53.868;10.728;2023-03-01T09:16:55;4.10;99.90
70368;DHT22;57789;53.868;10.728;2023-03-01T09:19:21;4.30;99.90
70368;DHT22;57789;53.868;10.728;2023-03-01T09:21:46;4.40;99.90
70368;DHT22;57789;53.868;10.728;2023-03-01T09:24:23;4.40;99.90
70368;DHT22;57789;53.868;10.728;2023-03-01T09:26:49;4.40;99.90
70368;DHT22;57789;53.868;10.728;2023-03-01T09:29:16;4.60;99.90
70368;DHT22;57789;53.868;10.728;2023-03-01T09:31:42;4.80;99.90
70368;DHT22;57789;53.868;10.728;2023-03-01T09:34:08;5.10;99.90
70368;DHT22;57789;53.868;10.728;2023-03-01T09:36:34;5.20;99.90
70368;DHT22;57789;53.868;10.728;2023-03-01T09:39:01;5.10;99.90
70368;DHT22;57789;53.868;10.728;2023-03-01T09:44:08;5.60;99.90
70368;DHT22;57789;53.868;10.728;2023-03-01T09:46:43;6.10;99.90
70368;DHT22;57789;53.868;10.728;2023-03-01T09:49:18;6.70;99.90
70368;DHT22;57789;53.868;10.728;2023-03-01T09:51:54;7.00;99.90
70368;DHT22;57789;53.868;10.728;2023-03-01T09:54:21;7.00;99.90
70368;DHT22;57789;53.868;10.728;2023-03-01T09:56:59;7.20;99.90
70368;DHT22;57789;53.868;10.728;2023-03-01T09:59:38;7.20;99.90
70368;DHT22;57789;53.868;10.728;2023-03-01T10:02:16;7.30;99.90
70368;DHT22;57789;53.868;10.728;2023-03-01T10:04:49;7.30;99.90
70368;DHT22;57789;53.868;10.728;2023-03-01T10:10:22;7.30;99.90
70368;DHT22;57789;53.868;10.728;2023-03-01T10:12:49;7.20;99.90
70368;DHT22;57789;53.868;10.728;2023-03-01T10:15:25;7.40;99.90
70368;DHT22;57789;53.868;10.728;2023-03-01T10:18:06;7.50;99.90
70368;DHT22;57789;53.868;10.728;2023-03-01T10:23:10;8.20;99.90
70368;DHT22;57789;53.868;10.728;2023-03-01T10:31:35;8.60;99.90
70368;DHT22;57789;53.868;10.728;2023-03-01T10:34:07;8.60;99.90
70368;DHT22;57789;53.868;10.728;2023-03-01T10:36:33;8.60;99.90
70368;DHT22;57789;53.868;10.728;2023-03-01T10:39:05;8.50;99.90
70368;DHT22;57789;53.868;10.728;2023-03-01T10:42:01;8.50;99.90
70368;DHT22;57789;53.868;10.728;2023-03-01T10:44:57;8.70;99.90
70368;DHT22;57789;53.868;10.728;2023-03-01T10:47:26;9.20;99.90
70368;DHT22;57789;53.868;10.728;2023-03-01T10:50:03;9.70;99.90
70368;DHT22;57789;53.868;10.728;2023-03-01T10:52:37;10.40;99.90
70368;DHT22;57789;53.868;10.728;2023-03-01T10:58:25;11.10;99.90
70368;DHT22;57789;53.868;10.728;2023-03-01T11:00:56;11.00;99.90
70368;DHT22;57789;53.868;10.728;2023-03-01T11:03:25;10.60;99.90
70368;DHT22;57789;53.868;10.728;2023-03-01T11:06:00;10.20;99.90
70368;DHT22;57789;53.868;10.728;2023-03-01T11:13:35;9.80;99.90
70368;DHT22;57789;53.868;10.728;2023-03-01T11:16:07;9.90;99.90
70368;DHT22;57789;53.868;10.728;2023-03-01T11:18:38;10.40;99.90
70368;DHT22;57789;53.868;10.728;2023-03-01T11:21:06;11.00;99.90
70368;DHT22;57789;53.868;10.728;2023-03-01T11:23:34;11.40;99.90
70368;DHT22;57789;53.868;10.728;2023-03-01T11:26:05;11.50;99.90
70368;DHT22;57789;53.868;10.728;2023-03-01T11:28:33;11.70;99.90
70368;DHT22;57789;53.868;10.728;2023-03-01T11:31:01;11.90;99.90
70368;DHT22;57789;53.868;10.728;2023-03-01T11:36:52;13.10;99.90
70368;DHT22;57789;53.868;10.728;2023-03-01T11:39:42;13.60;99.90
70368;DHT22;57789;53.868;10.728;2023-03-01T11:42:22;13.40;99.90
70368;DHT22;57789;53.868;10.728;2023-03-01T11:45:06;13.30;99.90
70368;DHT22;57789;53.868;10.728;2023-03-01T11:47:37;13.20;99.90
70368;DHT22;57789;53.868;10.728;2023-03-01T11:50:30;12.80;99.90
70368;DHT22;57789;53.868;10.728;2023-03-01T11:56:25;12.60;99.90
70368;DHT22;57789;53.868;10.728;2023-03-01T11:59:01;12.60;99.90
70368;DHT22;57789;53.868;10.728;2023-03-01T12:04:34;13.00;99.90
70368;DHT22;57789;53.868;10.728;2023-03-01T12:07:07;12.70;99.90
70368;DHT22;57789;53.868;10.728;2023-03-01T12:43:08;10.80;99.90
70368;DHT22;57789;53.868;10.728;2023-03-01T12:48:29;10.30;99.90
70368;DHT22;57789;53.868;10.728;2023-03-01T12:51:01;10.20;99.90
70368;DHT22;57789;53.868;10.728;2023-03-01T12:53:35;10.00;99.90
70368;DHT22;57789;53.868;10.728;2023-03-01T12:56:06;10.00;99.90
70368;DHT22;57789;53.868;10.728;2023-03-01T13:01:42;9.70;99.90
70368;DHT22;57789;53.868;10.728;2023-03-01T13:17:49;9.80;99.90
70368;DHT22;57789;53.868;10.728;2023-03-01T13:20:17;10.00;99.90
70368;DHT22;57789;53.868;10.728;2023-03-01T13:22:45;9.80;99.90
70368;DHT22;57789;53.868;10.728;2023-03-01T13:25:18;10.00;99.90
70368;DHT22;57789;53.868;10.728;2023-03-01T13:27:46;10.00;99.90
70368;DHT22;57789;53.868;10.728;2023-03-01T13:35:57;10.20;99.90
70368;DHT22;57789;53.868;10.728;2023-03-01T13:44:30;10.00;99.90
70368;DHT22;57789;53.868;10.728;2023-03-01T13:55:24;9.60;99.90
70368;DHT22;57789;53.868;10.728;2023-03-01T13:57:55;9.80;99.90
70368;DHT22;57789;53.868;10.728;2023-03-01T14:00:31;10.00;99.90
70368;DHT22;57789;53.868;10.728;2023-03-01T14:03:29;10.30;99.90
70368;DHT22;57789;53.868;10.728;2023-03-01T14:08:26;10.70;99.90
70368;DHT22;57789;53.868;10.728;2023-03-01T14:18:57;10.60;99.90
70368;DHT22;57789;53.868;10.728;2023-03-01T14:21:26;10.50;99.90
70368;DHT22;57789;53.868;10.728;2023-03-01T14:23:52;10.40;99.90
70368;DHT22;57789;53.868;10.728;2023-03-01T14:26:22;10.60;99.90
70368;DHT22;57789;53.868;10.728;2023-03-01T14:28:49;10.50;99.90
70368;DHT22;57789;53.868;10.728;2023-03-01T14:31:51;10.30;99.90
70368;DHT22;57789;53.868;10.728;2023-03-01T14:34:24;10.30;99.90
70368;DHT22;57789;53.868;10.728;2023-03-01T14:36:49;10.10;99.90
70368;DHT22;57789;53.868;10.728;2023-03-01T14:39:22;10.00;99.90
70368;DHT22;57789;53.868;10.728;2023-03-01T14:41:49;10.00;99.90
70368;DHT22;57789;53.868;10.728;2023-03-01T14:44:23;9.80;99.90
70368;DHT22;57789;53.868;10.728;2023-03-01T14:46:53;9.60;99.90
70368;DHT22;57789;53.868;10.728;2023-03-01T14:49:24;9.60;99.90
70368;DHT22;57789;53.868;10.728;2023-03-01T14:52:06;9.40;99.90
70368;DHT22;57789;53.868;10.728;2023-03-01T14:54:43;9.60;99.90
70368;DHT22;57789;53.868;10.728;2023-03-01T14:57:15;9.40;99.90
70368;DHT22;57789;53.868;10.728;2023-03-01T14:59:42;9.30;99.90
70368;DHT22;57789;53.868;10.728;2023-03-01T15:02:16;9.50;99.90
70368;DHT22;57789;53.868;10.728;2023-03-01T15:04:46;9.60;99.90
70368;DHT22;57789;53.868;10.728;2023-03-01T15:07:13;9.60;99.90
70368;DHT22;57789;53.868;10.728;2023-03-01T15:09:40;9.80;99.90
70368;DHT22;57789;53.868;10.728;2023-03-01T15:14:55;9.70;99.90
70368;DHT22;57789;53.868;10.728;2023-03-01T15:17:31;9.60;99.90
70368;DHT22;57789;53.868;10.728;2023-03-01T15:19:58;9.40;99.90
70368;DHT22;57789;53.868;10.728;2023-03-01T15:22:25;9.20;99.90
70368;DHT22;57789;53.868;10.728;2023-03-01T15:24:52;9.20;99.90
70368;DHT22;57789;53.868;10.728;2023-03-01T15:27:24;9.00;99.90
70368;DHT22;57789;53.868;10.728;2023-03-01T15:30:02;8.90;99.90
70368;DHT22;57789;53.868;10.728;2023-03-01T15:34:57;8.40;99.90
70368;DHT22;57789;53.868;10.728;2023-03-01T15:37:43;8.20;99.90
70368;DHT22;57789;53.868;10.728;2023-03-01T15:42:45;7.60;99.90
70368;DHT22;57789;53.868;10.728;2023-03-01T15:45:22;7.50;99.90
70368;DHT22;57789;53.868;10.728;2023-03-01T15:48:00;7.60;99.90
70368;DHT22;57789;53.868;10.728;2023-03-01T15:50:32;7.50;99.90
70368;DHT22;57789;53.868;10.728;2023-03-01T15:53:06;7.50;99.90
70368;DHT22;57789;53.868;10.728;2023-03-01T15:55:32;7.40;99.90
70368;DHT22;57789;53.868;10.728;2023-03-01T15:58:10;7.30;99.90
70368;DHT22;57789;53.868;10.728;2023-03-01T16:00:38;7.20;99.90
70368;DHT22;57789;53.868;10.728;2023-03-01T16:03:05;7.30;99.90
70368;DHT22;57789;53.868;10.728;2023-03-01T16:05:33;7.40;99.90
70368;DHT22;57789;53.868;10.728;2023-03-01T16:08:00;7.30;99.90
70368;DHT22;57789;53.868;10.728;2023-03-01T16:10:26;7.00;99.90
70368;DHT22;57789;53.868;10.728;2023-03-01T16:12:53;7.00;99.90
70368;DHT22;57789;53.868;10.728;2023-03-01T16:15:25;6.90;99.90
70368;DHT22;57789;53.868;10.728;2023-03-01T16:17:51;6.80;99.90
70368;DHT22;57789;53.868;10.728;2023-03-01T16:20:21;6.60;99.90
70368;DHT22;57789;53.868;10.728;2023-03-01T16:22:46;6.30;99.90
70368;DHT22;57789;53.868;10.728;2023-03-01T16:25:15;6.20;99.90
70368;DHT22;57789;53.868;10.728;2023-03-01T16:27:45;6.20;99.90
70368;DHT22;57789;53.868;10.728;2023-03-01T16:30:12;5.80;99.90
70368;DHT22;57789;53.868;10.728;2023-03-01T16:32:43;5.80;99.90
70368;DHT22;57789;53.868;10.728;2023-03-01T16:35:11;5.80;99.90
70368;DHT22;57789;53.868;10.728;2023-03-01T16:37:39;5.50;99.90
70368;DHT22;57789;53.868;10.728;2023-03-01T16:40:06;5.40;99.90
70368;DHT22;57789;53.868;10.728;2023-03-01T16:42:37;5.30;99.90
70368;DHT22;57789;53.868;10.728;2023-03-01T16:45:03;5.30;99.90
70368;DHT22;57789;53.868;10.728;2023-03-01T16:47:29;5.30;99.90
70368;DHT22;57789;53.868;10.728;2023-03-01T16:49:55;5.20;99.90
70368;DHT22;57789;53.868;10.728;2023-03-01T16:52:22;5.20;99.90
70368;DHT22;57789;53.868;10.728;2023-03-01T16:54:48;5.20;99.90
70368;DHT22;57789;53.868;10.728;2023-03-01T16:57:14;5.10;99.90
70368;DHT22;57789;53.868;10.728;2023-03-01T16:59:40;5.20;99.90
70368;DHT22;57789;53.868;10.728;2023-03-01T17:02:08;5.20;99.90
70368;DHT22;57789;53.868;10.728;2023-03-01T17:04:36;5.10;99.90
70368;DHT22;57789;53.868;10.728;2023-03-01T17:07:02;5.00;99.90
70368;DHT22;57789;53.868;10.728;2023-03-01T17:09:28;5.00;99.90
70368;DHT22;57789;53.868;10.728;2023-03-01T17:11:54;4.90;99.90
70368;DHT22;57789;53.868;10.728;2023-03-01T17:14:20;4.90;99.90
70368;DHT22;57789;53.868;10.728;2023-03-01T17:16:46;4.90;99.90
70368;DHT22;57789;53.868;10.728;2023-03-01T17:19:12;4.90;99.90
70368;DHT22;57789;53.868;10.728;2023-03-01T17:21:43;4.80;99.90
70368;DHT22;57789;53.868;10.728;2023-03-01T17:24:09;4.80;99.90
70368;DHT22;57789;53.868;10.728;2023-03-01T17:26:35;4.70;99.90
70368;DHT22;57789;53.868;10.728;2023-03-01T17:29:01;4.60;99.90
70368;DHT22;57789;53.868;10.728;2023-03-01T17:31:30;4.50;99.90
70368;DHT22;57789;53.868;10.728;2023-03-01T17:33:55;4.50;99.90
70368;DHT22;57789;53.868;10.728;2023-03-01T17:36:21;4.50;99.90
70368;DHT22;57789;53.868;10.728;2023-03-01T17:38:47;4.60;99.90
70368;DHT22;57789;53.868;10.728;2023-03-01T17:41:14;4.50;99.90
70368;DHT22;57789;53.868;10.728;2023-03-01T17:43:43;4.50;99.90
70368;DHT22;57789;53.868;10.728;2023-03-01T17:46:09;4.50;99.90
70368;DHT22;57789;53.868;10.728;2023-03-01T17:48:36;4.50;99.90
70368;DHT22;57789;53.868;10.728;2023-03-01T17:51:09;4.40;99.90
70368;DHT22;57789;53.868;10.728;2023-03-01T17:53:36;4.40;99.90
70368;DHT22;57789;53.868;10.728;2023-03-01T17:56:04;4.50;99.90
70368;DHT22;57789;53.868;10.728;2023-03-01T17:58:31;4.50;99.90